sensor_id;sensor_type;location;lat;lon;timestamp;P1;durP1;ratioP1;P2;durP2;ratioP2
36751;SDS011;22718;49.494;7.036;2023-12-04T00:01:46;24.45;;;12.75;;
36751;SDS011;22718;49.494;7.036;2023-12-04T00:04:59;25.38;;;13.48;;
36751;SDS011;22718;49.494;7.036;2023-12-04T00:08:40;23.95;;;12.57;;
36751;SDS011;22718;49.494;7.036;2023-12-04T00:12:09;26.02;;;12.45;;
36751;SDS011;22718;49.494;7.036;2023-12-04T00:18:44;26.00;;;12.48;;
36751;SDS011;22718;49.494;7.036;2023-12-04T00:28:22;23.60;;;11.43;;
36751;SDS011;22718;49.494;7.036;2023-12-04T00:31:56;22.10;;;13.40;;
36751;SDS011;22718;49.494;7.036;2023-12-04T00:39:07;24.67;;;12.60;;
36751;SDS011;22718;49.494;7.036;2023-12-04T00:42:32;24.55;;;12.25;;
36751;SDS011;22718;49.494;7.036;2023-12-04T00:52:17;24.00;;;12.57;;
36751;SDS011;22718;49.494;7.036;2023-12-04T00:59:07;20.73;;;11.50;;
36751;SDS011;22718;49.494;7.036;2023-12-04T01:02:45;21.67;;;11.68;;
36751;SDS011;22718;49.494;7.036;2023-12-04T01:09:06;22.48;;;12.07;;
36751;SDS011;22718;49.494;7.036;2023-12-04T01:12:13;24.35;;;12.68;;
36751;SDS011;22718;49.494;7.036;2023-12-04T01:15:13;23.50;;;12.75;;
36751;SDS011;22718;49.494;7.036;2023-12-04T01:17:52;22.90;;;12.90;;
36751;SDS011;22718;49.494;7.036;2023-12-04T01:21:05;25.30;;;12.95;;
36751;SDS011;22718;49.494;7.036;2023-12-04T01:23:56;24.17;;;13.23;;
36751;SDS011;22718;49.494;7.036;2023-12-04T01:26:59;24.17;;;13.60;;
36751;SDS011;22718;49.494;7.036;2023-12-04T01:29:59;28.00;;;12.82;;
36751;SDS011;22718;49.494;7.036;2023-12-04T01:33:10;27.10;;;13.40;;
36751;SDS011;22718;49.494;7.036;2023-12-04T01:36:10;26.95;;;12.95;;
36751;SDS011;22718;49.494;7.036;2023-12-04T01:39:14;27.20;;;13.35;;
36751;SDS011;22718;49.494;7.036;2023-12-04T01:41:47;25.98;;;13.45;;
36751;SDS011;22718;49.494;7.036;2023-12-04T01:45:23;26.00;;;11.95;;
36751;SDS011;22718;49.494;7.036;2023-12-04T01:51:32;23.42;;;12.73;;
36751;SDS011;22718;49.494;7.036;2023-12-04T01:54:22;24.15;;;12.82;;
36751;SDS011;22718;49.494;7.036;2023-12-04T02:00:46;21.05;;;11.13;;
36751;SDS011;22718;49.494;7.036;2023-12-04T02:03:40;24.05;;;11.73;;
36751;SDS011;22718;49.494;7.036;2023-12-04T02:06:24;23.85;;;12.35;;
36751;SDS011;22718;49.494;7.036;2023-12-04T02:12:49;26.27;;;11.40;;
36751;SDS011;22718;49.494;7.036;2023-12-04T02:15:31;23.73;;;12.10;;
36751;SDS011;22718;49.494;7.036;2023-12-04T02:18:52;25.10;;;13.27;;
36751;SDS011;22718;49.494;7.036;2023-12-04T02:21:24;26.90;;;13.35;;
36751;SDS011;22718;49.494;7.036;2023-12-04T02:24:35;24.17;;;12.30;;
36751;SDS011;22718;49.494;7.036;2023-12-04T02:30:57;25.88;;;12.15;;
36751;SDS011;22718;49.494;7.036;2023-12-04T02:34:23;22.65;;;12.32;;
36751;SDS011;22718;49.494;7.036;2023-12-04T02:37:16;22.63;;;12.35;;
36751;SDS011;22718;49.494;7.036;2023-12-04T02:49:18;22.02;;;11.20;;
36751;SDS011;22718;49.494;7.036;2023-12-04T02:52:23;23.38;;;12.40;;
36751;SDS011;22718;49.494;7.036;2023-12-04T02:58:26;24.95;;;12.05;;
36751;SDS011;22718;49.494;7.036;2023-12-04T03:01:45;22.45;;;12.25;;
36751;SDS011;22718;49.494;7.036;2023-12-04T03:11:06;21.45;;;11.48;;
36751;SDS011;22718;49.494;7.036;2023-12-04T03:27:31;23.27;;;12.20;;
36751;SDS011;22718;49.494;7.036;2023-12-04T03:30:44;21.02;;;10.45;;
36751;SDS011;22718;49.494;7.036;2023-12-04T03:33:54;25.60;;;12.93;;
36751;SDS011;22718;49.494;7.036;2023-12-04T03:37:09;20.10;;;11.05;;
36751;SDS011;22718;49.494;7.036;2023-12-04T03:47:34;20.88;;;11.25;;
36751;SDS011;22718;49.494;7.036;2023-12-04T03:54:01;21.70;;;10.77;;
36751;SDS011;22718;49.494;7.036;2023-12-04T03:57:37;18.23;;;9.27;;
36751;SDS011;22718;49.494;7.036;2023-12-04T04:03:40;19.27;;;11.00;;
36751;SDS011;22718;49.494;7.036;2023-12-04T04:06:51;19.48;;;10.55;;
36751;SDS011;22718;49.494;7.036;2023-12-04T04:10:20;21.42;;;10.80;;
36751;SDS011;22718;49.494;7.036;2023-12-04T04:24:31;19.80;;;10.43;;
36751;SDS011;22718;49.494;7.036;2023-12-04T04:28:11;21.70;;;10.25;;
36751;SDS011;22718;49.494;7.036;2023-12-04T04:39:15;18.10;;;9.88;;
36751;SDS011;22718;49.494;7.036;2023-12-04T04:46:19;18.98;;;9.85;;
36751;SDS011;22718;49.494;7.036;2023-12-04T04:49:23;17.98;;;9.55;;
36751;SDS011;22718;49.494;7.036;2023-12-04T04:56:05;19.52;;;11.02;;
36751;SDS011;22718;49.494;7.036;2023-12-04T04:59:52;16.02;;;9.30;;
36751;SDS011;22718;49.494;7.036;2023-12-04T05:10:46;17.50;;;9.63;;
36751;SDS011;22718;49.494;7.036;2023-12-04T05:14:10;23.48;;;11.55;;
36751;SDS011;22718;49.494;7.036;2023-12-04T05:24:33;20.45;;;10.02;;
36751;SDS011;22718;49.494;7.036;2023-12-04T05:28:25;22.33;;;11.35;;
36751;SDS011;22718;49.494;7.036;2023-12-04T05:31:48;18.88;;;9.77;;
36751;SDS011;22718;49.494;7.036;2023-12-04T05:38:55;18.60;;;9.90;;
36751;SDS011;22718;49.494;7.036;2023-12-04T05:49:09;21.38;;;11.13;;
36751;SDS011;22718;49.494;7.036;2023-12-04T06:23:13;21.25;;;11.57;;
36751;SDS011;22718;49.494;7.036;2023-12-04T06:30:00;21.08;;;12.23;;
36751;SDS011;22718;49.494;7.036;2023-12-04T06:36:37;21.92;;;11.38;;
36751;SDS011;22718;49.494;7.036;2023-12-04T07:03:38;18.92;;;11.57;;
36751;SDS011;22718;49.494;7.036;2023-12-04T07:17:43;22.00;;;11.00;;
36751;SDS011;22718;49.494;7.036;2023-12-04T07:21:13;21.40;;;11.98;;
36751;SDS011;22718;49.494;7.036;2023-12-04T07:24:36;18.08;;;10.52;;
36751;SDS011;22718;49.494;7.036;2023-12-04T07:59:11;20.65;;;10.18;;
36751;SDS011;22718;49.494;7.036;2023-12-04T08:03:13;23.70;;;14.02;;
36751;SDS011;22718;49.494;7.036;2023-12-04T08:20:26;20.60;;;10.30;;
36751;SDS011;22718;49.494;7.036;2023-12-04T16:55:29;23.02;;;10.82;;
36751;SDS011;22718;49.494;7.036;2023-12-04T16:57:55;26.35;;;11.77;;
36751;SDS011;22718;49.494;7.036;2023-12-04T17:00:26;26.00;;;12.38;;
36751;SDS011;22718;49.494;7.036;2023-12-04T17:02:58;27.02;;;12.48;;
36751;SDS011;22718;49.494;7.036;2023-12-04T17:06:16;26.40;;;11.98;;
36751;SDS011;22718;49.494;7.036;2023-12-04T17:12:18;21.10;;;11.10;;
36751;SDS011;22718;49.494;7.036;2023-12-04T17:15:38;39.42;;;19.30;;
36751;SDS011;22718;49.494;7.036;2023-12-04T17:19:05;25.67;;;12.38;;
36751;SDS011;22718;49.494;7.036;2023-12-04T17:22:24;25.70;;;10.25;;
36751;SDS011;22718;49.494;7.036;2023-12-04T17:28:03;26.77;;;12.05;;
36751;SDS011;22718;49.494;7.036;2023-12-04T17:33:45;25.48;;;13.27;;
36751;SDS011;22718;49.494;7.036;2023-12-04T17:37:06;31.95;;;13.98;;
36751;SDS011;22718;49.494;7.036;2023-12-04T17:40:01;33.03;;;13.95;;
36751;SDS011;22718;49.494;7.036;2023-12-04T17:46:39;29.30;;;14.57;;
36751;SDS011;22718;49.494;7.036;2023-12-04T17:49:26;44.28;;;18.40;;
36751;SDS011;22718;49.494;7.036;2023-12-04T17:52:02;37.50;;;16.17;;
36751;SDS011;22718;49.494;7.036;2023-12-04T17:54:28;35.00;;;16.35;;
36751;SDS011;22718;49.494;7.036;2023-12-04T17:56:59;33.03;;;13.95;;
36751;SDS011;22718;49.494;7.036;2023-12-04T17:59:27;34.73;;;14.17;;
36751;SDS011;22718;49.494;7.036;2023-12-04T18:02:09;35.67;;;14.63;;
36751;SDS011;22718;49.494;7.036;2023-12-04T18:04:37;37.42;;;15.15;;
36751;SDS011;22718;49.494;7.036;2023-12-04T18:07:04;33.42;;;14.15;;
36751;SDS011;22718;49.494;7.036;2023-12-04T18:09:31;46.72;;;16.75;;
36751;SDS011;22718;49.494;7.036;2023-12-04T18:11:56;42.08;;;19.25;;
36751;SDS011;22718;49.494;7.036;2023-12-04T18:14:24;36.90;;;17.20;;
36751;SDS011;22718;49.494;7.036;2023-12-04T18:16:51;40.47;;;15.60;;
36751;SDS011;22718;49.494;7.036;2023-12-04T18:19:18;46.97;;;23.85;;
36751;SDS011;22718;49.494;7.036;2023-12-04T18:24:17;44.00;;;19.30;;
36751;SDS011;22718;49.494;7.036;2023-12-04T18:26:43;119.35;;;21.00;;
36751;SDS011;22718;49.494;7.036;2023-12-04T18:29:11;234.50;;;27.77;;
36751;SDS011;22718;49.494;7.036;2023-12-04T18:31:37;104.50;;;20.40;;
36751;SDS011;22718;49.494;7.036;2023-12-04T18:34:12;79.63;;;20.15;;
36751;SDS011;22718;49.494;7.036;2023-12-04T18:36:44;65.10;;;18.77;;
36751;SDS011;22718;49.494;7.036;2023-12-04T18:39:15;43.40;;;14.43;;
36751;SDS011;22718;49.494;7.036;2023-12-04T18:41:47;37.90;;;15.00;;
36751;SDS011;22718;49.494;7.036;2023-12-04T18:44:15;54.03;;;17.17;;
36751;SDS011;22718;49.494;7.036;2023-12-04T18:46:41;45.13;;;14.95;;
36751;SDS011;22718;49.494;7.036;2023-12-04T18:49:09;44.42;;;14.25;;
36751;SDS011;22718;49.494;7.036;2023-12-04T18:51:38;53.58;;;14.80;;
36751;SDS011;22718;49.494;7.036;2023-12-04T18:54:11;36.60;;;14.48;;
36751;SDS011;22718;49.494;7.036;2023-12-04T18:56:45;35.83;;;14.00;;
36751;SDS011;22718;49.494;7.036;2023-12-04T18:59:14;35.50;;;14.18;;
36751;SDS011;22718;49.494;7.036;2023-12-04T19:01:39;34.90;;;13.55;;
36751;SDS011;22718;49.494;7.036;2023-12-04T19:04:05;39.00;;;12.55;;
36751;SDS011;22718;49.494;7.036;2023-12-04T19:06:32;45.88;;;16.88;;
36751;SDS011;22718;49.494;7.036;2023-12-04T19:09:00;43.05;;;14.77;;
36751;SDS011;22718;49.494;7.036;2023-12-04T19:11:26;47.67;;;13.95;;
36751;SDS011;22718;49.494;7.036;2023-12-04T19:13:54;43.75;;;16.40;;
36751;SDS011;22718;49.494;7.036;2023-12-04T19:16:24;52.53;;;22.02;;
36751;SDS011;22718;49.494;7.036;2023-12-04T19:18:51;36.60;;;15.38;;
36751;SDS011;22718;49.494;7.036;2023-12-04T19:21:18;230.20;;;29.38;;
36751;SDS011;22718;49.494;7.036;2023-12-04T19:23:44;396.92;;;45.38;;
36751;SDS011;22718;49.494;7.036;2023-12-04T19:26:10;516.15;;;47.78;;
36751;SDS011;22718;49.494;7.036;2023-12-04T19:28:37;288.55;;;39.72;;
36751;SDS011;22718;49.494;7.036;2023-12-04T19:31:04;512.72;;;63.67;;
36751;SDS011;22718;49.494;7.036;2023-12-04T19:33:30;268.02;;;32.35;;
36751;SDS011;22718;49.494;7.036;2023-12-04T19:35:56;225.10;;;27.98;;
36751;SDS011;22718;49.494;7.036;2023-12-04T19:38:25;107.15;;;21.33;;
36751;SDS011;22718;49.494;7.036;2023-12-04T19:40:50;119.85;;;23.30;;
36751;SDS011;22718;49.494;7.036;2023-12-04T19:43:16;213.52;;;29.25;;
36751;SDS011;22718;49.494;7.036;2023-12-04T19:45:42;270.63;;;30.38;;
36751;SDS011;22718;49.494;7.036;2023-12-04T19:48:08;185.48;;;26.23;;
36751;SDS011;22718;49.494;7.036;2023-12-04T19:53:05;136.63;;;23.00;;
36751;SDS011;22718;49.494;7.036;2023-12-04T19:55:31;89.15;;;20.20;;
36751;SDS011;22718;49.494;7.036;2023-12-04T19:57:56;272.20;;;33.20;;
36751;SDS011;22718;49.494;7.036;2023-12-04T20:00:22;218.07;;;29.50;;
36751;SDS011;22718;49.494;7.036;2023-12-04T20:02:53;160.70;;;27.58;;
36751;SDS011;22718;49.494;7.036;2023-12-04T20:05:18;247.45;;;30.20;;
36751;SDS011;22718;49.494;7.036;2023-12-04T20:07:44;170.23;;;21.95;;
36751;SDS011;22718;49.494;7.036;2023-12-04T20:10:10;354.67;;;38.97;;
36751;SDS011;22718;49.494;7.036;2023-12-04T20:12:39;106.00;;;18.90;;
36751;SDS011;22718;49.494;7.036;2023-12-04T20:15:05;55.15;;;16.52;;
36751;SDS011;22718;49.494;7.036;2023-12-04T20:17:34;81.85;;;19.95;;
36751;SDS011;22718;49.494;7.036;2023-12-04T20:20:00;85.57;;;21.20;;
36751;SDS011;22718;49.494;7.036;2023-12-04T20:22:26;65.82;;;17.73;;
36751;SDS011;22718;49.494;7.036;2023-12-04T20:24:53;69.45;;;21.98;;
36751;SDS011;22718;49.494;7.036;2023-12-04T20:27:21;54.25;;;18.35;;
36751;SDS011;22718;49.494;7.036;2023-12-04T20:29:48;138.07;;;28.60;;
36751;SDS011;22718;49.494;7.036;2023-12-04T20:32:14;84.85;;;25.27;;
36751;SDS011;22718;49.494;7.036;2023-12-04T20:34:42;103.88;;;20.95;;
36751;SDS011;22718;49.494;7.036;2023-12-04T20:37:08;110.00;;;20.40;;
36751;SDS011;22718;49.494;7.036;2023-12-04T20:39:41;214.38;;;28.95;;
36751;SDS011;22718;49.494;7.036;2023-12-04T20:42:08;174.00;;;28.58;;
36751;SDS011;22718;49.494;7.036;2023-12-04T20:44:34;227.70;;;30.85;;
36751;SDS011;22718;49.494;7.036;2023-12-04T20:47:02;129.48;;;22.20;;
36751;SDS011;22718;49.494;7.036;2023-12-04T20:49:31;226.18;;;28.65;;
36751;SDS011;22718;49.494;7.036;2023-12-04T20:52:00;154.32;;;25.90;;
36751;SDS011;22718;49.494;7.036;2023-12-04T20:54:26;580.78;;;56.83;;
36751;SDS011;22718;49.494;7.036;2023-12-04T20:56:55;393.73;;;39.45;;
36751;SDS011;22718;49.494;7.036;2023-12-04T20:59:26;373.10;;;36.95;;
36751;SDS011;22718;49.494;7.036;2023-12-04T21:01:54;283.88;;;32.35;;
36751;SDS011;22718;49.494;7.036;2023-12-04T21:04:24;259.52;;;37.25;;
36751;SDS011;22718;49.494;7.036;2023-12-04T21:06:52;350.58;;;37.80;;
36751;SDS011;22718;49.494;7.036;2023-12-04T21:09:18;172.20;;;25.90;;
36751;SDS011;22718;49.494;7.036;2023-12-04T21:11:44;132.52;;;24.27;;
36751;SDS011;22718;49.494;7.036;2023-12-04T21:14:11;132.02;;;24.00;;
36751;SDS011;22718;49.494;7.036;2023-12-04T21:16:37;88.80;;;21.63;;
36751;SDS011;22718;49.494;7.036;2023-12-04T21:19:07;74.22;;;19.20;;
36751;SDS011;22718;49.494;7.036;2023-12-04T21:21:32;109.45;;;28.23;;
36751;SDS011;22718;49.494;7.036;2023-12-04T21:24:00;146.45;;;29.85;;
36751;SDS011;22718;49.494;7.036;2023-12-04T21:26:26;244.38;;;28.45;;
36751;SDS011;22718;49.494;7.036;2023-12-04T21:28:52;168.30;;;26.85;;
36751;SDS011;22718;49.494;7.036;2023-12-04T21:31:17;271.08;;;33.83;;
36751;SDS011;22718;49.494;7.036;2023-12-04T21:33:43;315.05;;;35.85;;
36751;SDS011;22718;49.494;7.036;2023-12-04T21:36:09;85.72;;;22.30;;
36751;SDS011;22718;49.494;7.036;2023-12-04T21:38:35;342.77;;;56.80;;
36751;SDS011;22718;49.494;7.036;2023-12-04T21:43:39;331.55;;;48.20;;
36751;SDS011;22718;49.494;7.036;2023-12-04T21:46:06;356.10;;;42.88;;
36751;SDS011;22718;49.494;7.036;2023-12-04T21:48:32;271.38;;;40.00;;
36751;SDS011;22718;49.494;7.036;2023-12-04T21:50:58;343.10;;;44.90;;
36751;SDS011;22718;49.494;7.036;2023-12-04T21:53:24;358.77;;;41.78;;
36751;SDS011;22718;49.494;7.036;2023-12-04T21:55:49;333.83;;;37.35;;
36751;SDS011;22718;49.494;7.036;2023-12-04T21:58:15;229.77;;;37.53;;
36751;SDS011;22718;49.494;7.036;2023-12-04T22:00:41;324.27;;;46.15;;
36751;SDS011;22718;49.494;7.036;2023-12-04T22:03:07;130.73;;;38.17;;
36751;SDS011;22718;49.494;7.036;2023-12-04T22:05:35;293.73;;;38.05;;
36751;SDS011;22718;49.494;7.036;2023-12-04T22:08:01;343.73;;;37.30;;
36751;SDS011;22718;49.494;7.036;2023-12-04T22:10:27;372.30;;;52.60;;
36751;SDS011;22718;49.494;7.036;2023-12-04T22:12:55;309.90;;;49.55;;
36751;SDS011;22718;49.494;7.036;2023-12-04T22:15:21;413.17;;;43.40;;
36751;SDS011;22718;49.494;7.036;2023-12-04T22:17:47;325.02;;;42.38;;
36751;SDS011;22718;49.494;7.036;2023-12-04T22:20:14;249.18;;;32.95;;
36751;SDS011;22718;49.494;7.036;2023-12-04T22:22:40;395.67;;;48.47;;
36751;SDS011;22718;49.494;7.036;2023-12-04T22:25:06;344.88;;;37.03;;
36751;SDS011;22718;49.494;7.036;2023-12-04T22:27:32;525.55;;;52.08;;
36751;SDS011;22718;49.494;7.036;2023-12-04T22:30:02;494.55;;;47.50;;
36751;SDS011;22718;49.494;7.036;2023-12-04T22:32:30;237.63;;;30.60;;
36751;SDS011;22718;49.494;7.036;2023-12-04T22:34:59;436.10;;;42.92;;
36751;SDS011;22718;49.494;7.036;2023-12-04T22:37:25;307.80;;;39.38;;
36751;SDS011;22718;49.494;7.036;2023-12-04T22:39:51;303.42;;;31.02;;
36751;SDS011;22718;49.494;7.036;2023-12-04T22:42:16;405.23;;;42.25;;
36751;SDS011;22718;49.494;7.036;2023-12-04T22:44:42;270.30;;;32.08;;
36751;SDS011;22718;49.494;7.036;2023-12-04T22:47:08;404.45;;;41.65;;
36751;SDS011;22718;49.494;7.036;2023-12-04T22:49:33;394.13;;;34.88;;
36751;SDS011;22718;49.494;7.036;2023-12-04T22:51:59;371.50;;;41.42;;
36751;SDS011;22718;49.494;7.036;2023-12-04T22:54:28;314.50;;;35.85;;
36751;SDS011;22718;49.494;7.036;2023-12-04T22:56:56;219.00;;;24.13;;
36751;SDS011;22718;49.494;7.036;2023-12-04T22:59:22;199.85;;;27.30;;
36751;SDS011;22718;49.494;7.036;2023-12-04T23:01:48;435.38;;;38.60;;
36751;SDS011;22718;49.494;7.036;2023-12-04T23:04:17;482.30;;;44.28;;
36751;SDS011;22718;49.494;7.036;2023-12-04T23:06:43;477.45;;;42.60;;
36751;SDS011;22718;49.494;7.036;2023-12-04T23:09:09;341.55;;;36.03;;
36751;SDS011;22718;49.494;7.036;2023-12-04T23:11:38;339.15;;;35.53;;
36751;SDS011;22718;49.494;7.036;2023-12-04T23:14:03;272.02;;;30.80;;
36751;SDS011;22718;49.494;7.036;2023-12-04T23:16:31;328.48;;;33.65;;
36751;SDS011;22718;49.494;7.036;2023-12-04T23:18:57;337.67;;;38.60;;
36751;SDS011;22718;49.494;7.036;2023-12-04T23:21:22;252.60;;;41.42;;
36751;SDS011;22718;49.494;7.036;2023-12-04T23:23:48;281.75;;;38.63;;
36751;SDS011;22718;49.494;7.036;2023-12-04T23:26:13;158.20;;;26.83;;
36751;SDS011;22718;49.494;7.036;2023-12-04T23:28:39;225.13;;;27.98;;
36751;SDS011;22718;49.494;7.036;2023-12-04T23:31:05;199.15;;;24.85;;
36751;SDS011;22718;49.494;7.036;2023-12-04T23:33:33;131.68;;;17.77;;
36751;SDS011;22718;49.494;7.036;2023-12-04T23:36:01;170.82;;;21.08;;
36751;SDS011;22718;49.494;7.036;2023-12-04T23:38:29;97.53;;;16.60;;
36751;SDS011;22718;49.494;7.036;2023-12-04T23:40:54;125.93;;;20.33;;
36751;SDS011;22718;49.494;7.036;2023-12-04T23:43:20;69.43;;;13.95;;
36751;SDS011;22718;49.494;7.036;2023-12-04T23:45:46;28.38;;;9.07;;
36751;SDS011;22718;49.494;7.036;2023-12-04T23:48:15;35.75;;;8.75;;
36751;SDS011;22718;49.494;7.036;2023-12-04T23:50:40;29.75;;;8.75;;
36751;SDS011;22718;49.494;7.036;2023-12-04T23:53:06;76.05;;;12.68;;
36751;SDS011;22718;49.494;7.036;2023-12-04T23:55:32;28.00;;;8.98;;
36751;SDS011;22718;49.494;7.036;2023-12-04T23:57:57;31.83;;;7.60;;
